createdAt,value
2017-11-30T00:00:01.773Z,60.53
2017-11-30T00:02:36.655Z,77.80
2017-11-30T00:05:11.482Z,73.50
2017-11-30T00:07:46.391Z,74.27
2017-11-30T00:10:21.101Z,55.40
2017-11-30T00:12:55.894Z,73.53
2017-11-30T00:15:30.513Z,74.63
2017-11-30T00:18:05.574Z,64.50
2017-11-30T00:20:40.318Z,69.30
2017-11-30T00:23:15.057Z,66.10
2017-11-30T00:25:49.326Z,59.00
2017-11-30T00:28:24.309Z,71.07
2017-11-30T00:30:59.031Z,62.80
2017-11-30T00:33:33.757Z,64.20
2017-11-30T00:36:08.641Z,71.33
2017-11-30T00:38:43.469Z,61.90
2017-11-30T00:41:18.173Z,62.47
2017-11-30T00:43:52.551Z,65.30
2017-11-30T00:46:27.301Z,55.43
2017-11-30T00:49:02.338Z,65.40
2017-11-30T00:51:37.585Z,62.37
2017-11-30T00:54:11.979Z,65.60
2017-11-30T00:56:47.069Z,57.90
2017-11-30T00:59:21.927Z,57.50
2017-11-30T01:01:56.748Z,62.80
2017-11-30T01:04:31.633Z,55.90
2017-11-30T01:07:06.306Z,59.70
2017-11-30T01:09:41.210Z,52.30
2017-11-30T01:12:15.817Z,51.60
2017-11-30T01:14:50.541Z,58.40
2017-11-30T01:17:24.930Z,54.60
2017-11-30T01:19:59.922Z,50.43
2017-11-30T01:22:34.727Z,59.60
2017-11-30T01:25:09.525Z,57.40
2017-11-30T01:27:44.554Z,50.73
2017-11-30T01:30:19.514Z,56.80
2017-11-30T01:32:54.282Z,56.07
2017-11-30T01:35:29.014Z,57.10
2017-11-30T01:38:03.942Z,51.37
2017-11-30T01:40:39.098Z,52.10
2017-11-30T01:43:14.002Z,56.23
2017-11-30T01:45:49.151Z,54.10
2017-11-30T01:48:24.055Z,56.37
2017-11-30T01:50:58.791Z,58.97
2017-11-30T01:53:33.602Z,56.97
2017-11-30T01:56:08.359Z,64.30
2017-11-30T01:58:43.443Z,63.00
2017-11-30T02:01:18.298Z,63.30
2017-11-30T02:03:53.049Z,58.27
2017-11-30T02:06:27.880Z,69.13
2017-11-30T02:09:02.930Z,58.47
2017-11-30T02:11:37.886Z,59.73
2017-11-30T02:14:12.585Z,59.23
2017-11-30T02:16:47.449Z,46.13
2017-11-30T02:19:21.630Z,62.73
2017-11-30T02:21:56.377Z,55.57
2017-11-30T02:24:31.191Z,57.27
2017-11-30T02:27:06.350Z,50.37
2017-11-30T02:29:40.847Z,52.40
2017-11-30T02:32:15.680Z,62.40
2017-11-30T02:34:50.561Z,52.03
2017-11-30T02:37:25.087Z,56.27
2017-11-30T02:40:00.081Z,53.47
2017-11-30T02:42:34.863Z,54.83
2017-11-30T02:45:09.437Z,51.83
2017-11-30T02:47:44.075Z,60.03
2017-11-30T02:50:19.229Z,56.00
2017-11-30T02:52:53.726Z,51.50
2017-11-30T02:55:28.836Z,54.27
2017-11-30T02:58:03.465Z,50.63
2017-11-30T03:00:38.130Z,59.33
2017-11-30T03:03:12.876Z,50.10
2017-11-30T03:05:47.388Z,62.90
2017-11-30T03:08:22.165Z,49.60
2017-11-30T03:10:56.720Z,48.80
2017-11-30T03:13:31.729Z,48.00
2017-11-30T03:16:06.270Z,55.60
2017-11-30T03:18:40.982Z,61.77
2017-11-30T03:21:16.185Z,24.63
2017-11-30T03:23:50.578Z,47.20
2017-11-30T03:26:25.551Z,62.50
2017-11-30T03:29:00.569Z,58.80
2017-11-30T03:31:35.470Z,52.90
2017-11-30T03:34:10.326Z,55.53
2017-11-30T03:36:45.055Z,60.60
2017-11-30T03:39:19.553Z,62.63
2017-11-30T03:41:54.486Z,60.03
2017-11-30T03:44:29.366Z,54.10
2017-11-30T03:47:04.117Z,58.37
2017-11-30T03:49:38.642Z,68.20
2017-11-30T03:52:13.314Z,67.80
2017-11-30T03:54:48.134Z,62.47
2017-11-30T03:57:22.802Z,60.20
2017-11-30T03:59:57.777Z,62.83
2017-11-30T04:02:32.544Z,62.90
2017-11-30T04:05:07.350Z,64.63
2017-11-30T04:07:42.285Z,61.33
2017-11-30T04:10:17.037Z,71.63
2017-11-30T04:12:51.735Z,62.73
2017-11-30T04:15:26.591Z,64.03
2017-11-30T04:18:01.320Z,58.43
2017-11-30T04:20:36.357Z,68.73
2017-11-30T04:23:11.114Z,63.07
2017-11-30T04:25:45.938Z,61.70
2017-11-30T04:28:20.912Z,65.13
2017-11-30T04:30:55.772Z,66.97
2017-11-30T04:33:30.603Z,76.47
2017-11-30T04:36:05.325Z,64.07
2017-11-30T04:38:40.051Z,59.40
2017-11-30T04:41:14.817Z,59.17
2017-11-30T04:43:49.757Z,70.73
2017-11-30T04:46:24.254Z,65.10
2017-11-30T04:48:59.002Z,62.47
2017-11-30T04:51:33.633Z,66.70
2017-11-30T04:54:08.401Z,77.60
2017-11-30T04:56:42.986Z,68.03
2017-11-30T04:59:17.689Z,74.20
2017-11-30T05:01:52.655Z,75.97
2017-11-30T05:04:27.417Z,87.00
2017-11-30T05:07:01.871Z,67.27
2017-11-30T05:09:36.569Z,88.63
2017-11-30T05:12:11.566Z,67.00
2017-11-30T05:14:46.514Z,77.00
2017-11-30T05:17:21.205Z,76.33
2017-11-30T05:19:56.182Z,95.23
2017-11-30T05:22:30.995Z,93.33
2017-11-30T05:25:05.800Z,94.13
2017-11-30T05:27:40.242Z,103.03
2017-11-30T05:30:15.211Z,74.77
2017-11-30T05:32:49.914Z,94.13
2017-11-30T05:35:24.806Z,83.47
2017-11-30T05:37:59.534Z,78.03
2017-11-30T05:40:34.301Z,69.30
2017-11-30T05:43:09.114Z,77.47
2017-11-30T05:45:43.686Z,78.20
2017-11-30T05:48:18.545Z,70.40
2017-11-30T05:50:53.312Z,84.57
2017-11-30T05:53:27.958Z,95.33
2017-11-30T05:56:02.761Z,79.60
2017-11-30T05:58:37.394Z,90.87
2017-11-30T06:01:12.214Z,79.90
2017-11-30T06:03:47.166Z,82.90
2017-11-30T06:06:21.999Z,96.80
2017-11-30T06:08:57.002Z,81.13
2017-11-30T06:11:31.838Z,83.83
2017-11-30T06:14:06.677Z,98.63
2017-11-30T06:16:41.630Z,88.67
2017-11-30T06:19:16.204Z,90.70
2017-11-30T06:21:51.371Z,98.27
2017-11-30T06:24:26.389Z,94.07
2017-11-30T06:27:01.498Z,84.70
2017-11-30T06:29:36.359Z,75.37
2017-11-30T06:32:11.195Z,79.43
2017-11-30T06:34:46.080Z,74.10
2017-11-30T06:37:21.174Z,71.23
2017-11-30T06:39:55.841Z,82.93
2017-11-30T06:42:30.638Z,79.80
2017-11-30T06:45:05.422Z,79.20
2017-11-30T06:47:40.201Z,81.67
2017-11-30T06:50:15.052Z,76.40
2017-11-30T06:52:49.790Z,73.23
2017-11-30T06:55:24.717Z,85.53
2017-11-30T06:57:59.454Z,79.47
2017-11-30T07:00:33.877Z,76.10
2017-11-30T07:03:08.606Z,89.73
2017-11-30T07:05:43.442Z,92.53
2017-11-30T07:08:18.128Z,66.33
2017-11-30T07:10:52.978Z,86.97
2017-11-30T07:13:27.979Z,76.53
2017-11-30T07:16:02.758Z,85.57
2017-11-30T07:18:37.587Z,90.93
2017-11-30T07:21:12.386Z,75.93
2017-11-30T07:23:47.157Z,77.27
2017-11-30T07:26:22.016Z,80.07
2017-11-30T07:28:56.447Z,68.73
2017-11-30T07:31:31.442Z,65.60
2017-11-30T07:34:06.196Z,73.43
2017-11-30T07:36:40.977Z,65.03
2017-11-30T07:39:15.712Z,61.67
2017-11-30T07:41:50.410Z,59.53
2017-11-30T07:44:25.037Z,76.77
2017-11-30T07:46:59.938Z,49.37
2017-11-30T07:49:34.843Z,61.37
2017-11-30T07:52:09.688Z,71.47
2017-11-30T07:54:44.278Z,56.77
2017-11-30T07:57:19.085Z,63.40
2017-11-30T07:59:53.914Z,51.20
2017-11-30T08:02:28.657Z,58.53
2017-11-30T08:05:03.369Z,55.90
2017-11-30T08:07:38.191Z,61.83
2017-11-30T08:10:13.080Z,53.00
2017-11-30T08:12:47.698Z,64.47
2017-11-30T08:15:22.427Z,62.23
2017-11-30T08:17:57.015Z,61.07
2017-11-30T08:20:31.766Z,59.87
2017-11-30T08:23:06.632Z,62.77
2017-11-30T08:25:41.141Z,60.23
2017-11-30T08:28:16.267Z,42.70
2017-11-30T08:30:51.170Z,60.77
2017-11-30T08:33:26.043Z,47.57
2017-11-30T08:36:00.754Z,56.17
2017-11-30T08:38:35.603Z,57.37
2017-11-30T08:41:10.440Z,60.27
2017-11-30T08:43:45.315Z,64.37
2017-11-30T08:46:20.165Z,55.27
2017-11-30T08:48:54.917Z,64.43
2017-11-30T08:51:29.827Z,58.30
2017-11-30T08:54:04.167Z,64.87
2017-11-30T08:56:38.852Z,53.83
2017-11-30T08:59:13.798Z,56.87
2017-11-30T09:01:48.418Z,48.03
2017-11-30T09:04:23.383Z,61.70
2017-11-30T09:06:58.162Z,58.97
2017-11-30T09:09:32.965Z,57.90
2017-11-30T09:12:07.407Z,56.17
2017-11-30T09:14:42.294Z,57.33
2017-11-30T09:17:17.164Z,51.33
2017-11-30T09:19:51.653Z,55.00
2017-11-30T09:22:26.713Z,54.43
2017-11-30T09:25:01.395Z,58.80
2017-11-30T09:27:36.245Z,53.93
2017-11-30T09:30:10.942Z,50.90
2017-11-30T09:32:45.898Z,55.80
2017-11-30T09:35:20.581Z,53.63
2017-11-30T09:37:55.455Z,52.67
2017-11-30T09:40:30.326Z,52.27
2017-11-30T09:43:05.210Z,58.03
2017-11-30T09:45:40.242Z,53.90
2017-11-30T09:48:14.990Z,55.10
2017-11-30T09:50:50.019Z,45.17
2017-11-30T09:53:25.171Z,48.40
2017-11-30T09:56:00.071Z,49.53
2017-11-30T09:58:35.010Z,63.17
2017-11-30T10:01:09.856Z,60.20
2017-11-30T10:03:44.793Z,49.57
2017-11-30T10:06:19.711Z,46.30
2017-11-30T10:08:54.574Z,56.27
2017-11-30T10:11:29.226Z,57.77
2017-11-30T10:14:04.224Z,51.00
2017-11-30T10:16:39.146Z,52.70
2017-11-30T10:19:14.301Z,52.10
2017-11-30T10:21:49.217Z,56.07
2017-11-30T10:24:23.870Z,60.10
2017-11-30T10:26:58.893Z,56.77
2017-11-30T10:29:33.697Z,46.60
2017-11-30T10:32:08.353Z,48.07
2017-11-30T10:34:42.927Z,54.83
2017-11-30T10:37:17.635Z,45.90
2017-11-30T10:39:52.256Z,65.07
2017-11-30T10:42:26.870Z,60.40
2017-11-30T10:45:01.773Z,57.23
2017-11-30T10:47:36.487Z,47.47
2017-11-30T10:50:11.334Z,52.50
2017-11-30T10:52:46.183Z,59.40
2017-11-30T10:55:21.093Z,55.13
2017-11-30T10:57:55.839Z,48.13
2017-11-30T11:00:30.774Z,48.70
2017-11-30T11:03:05.618Z,53.13
2017-11-30T11:05:40.563Z,43.13
2017-11-30T11:08:15.270Z,46.33
2017-11-30T11:10:50.075Z,45.60
2017-11-30T11:13:25.025Z,48.10
2017-11-30T11:15:59.860Z,49.17
2017-11-30T11:18:34.693Z,49.83
2017-11-30T11:21:09.418Z,47.77
2017-11-30T11:23:44.488Z,42.27
2017-11-30T11:26:19.191Z,36.10
2017-11-30T11:28:53.730Z,44.43
2017-11-30T11:31:28.626Z,34.50
2017-11-30T11:34:03.569Z,34.67
2017-11-30T11:36:38.515Z,37.57
2017-11-30T11:39:13.350Z,37.70
2017-11-30T11:41:48.353Z,36.93
2017-11-30T11:44:23.265Z,34.90
2017-11-30T11:46:58.024Z,39.63
2017-11-30T11:49:32.929Z,42.70
2017-11-30T11:52:07.858Z,29.40
2017-11-30T11:54:42.670Z,30.93
2017-11-30T11:57:17.478Z,42.77
2017-11-30T11:59:52.339Z,36.33
2017-11-30T12:02:26.779Z,22.87
2017-11-30T12:05:01.573Z,34.90
2017-11-30T12:07:37.264Z,34.93
2017-11-30T12:10:12.261Z,32.43
2017-11-30T12:12:47.426Z,32.67
2017-11-30T12:15:22.478Z,30.10
2017-11-30T12:17:57.451Z,32.33
2017-11-30T12:20:32.386Z,28.87
2017-11-30T12:23:07.178Z,29.20
2017-11-30T12:25:42.047Z,29.40
2017-11-30T12:28:16.794Z,30.80
2017-11-30T12:30:51.670Z,29.90
2017-11-30T12:33:26.213Z,31.73
2017-11-30T12:36:00.861Z,37.00
2017-11-30T12:38:35.679Z,26.07
2017-11-30T12:41:10.301Z,21.90
2017-11-30T12:43:45.012Z,18.23
2017-11-30T12:46:19.740Z,30.23
2017-11-30T12:48:54.589Z,32.50
2017-11-30T12:51:29.322Z,26.23
2017-11-30T12:54:04.093Z,31.27
2017-11-30T12:56:38.805Z,24.40
2017-11-30T12:59:13.268Z,30.00
2017-11-30T13:01:48.002Z,35.33
2017-11-30T13:04:22.989Z,28.73
2017-11-30T13:06:57.688Z,29.93
2017-11-30T13:09:32.517Z,20.20
2017-11-30T13:12:07.476Z,36.03
2017-11-30T13:14:42.186Z,24.20
2017-11-30T13:17:16.718Z,29.73
2017-11-30T13:19:51.649Z,31.80
2017-11-30T13:22:26.412Z,24.07
2017-11-30T13:25:01.097Z,23.83
2017-11-30T13:27:36.136Z,27.03
2017-11-30T13:30:10.876Z,33.57
2017-11-30T13:32:45.807Z,25.50
2017-11-30T13:35:20.563Z,28.50
2017-11-30T13:37:55.552Z,27.13
2017-11-30T13:40:30.233Z,23.97
2017-11-30T13:43:05.029Z,22.50
2017-11-30T13:45:39.836Z,23.33
2017-11-30T13:48:14.941Z,28.50
2017-11-30T13:50:49.746Z,29.40
2017-11-30T13:53:24.612Z,25.07
2017-11-30T13:55:59.544Z,28.03
2017-11-30T13:58:34.569Z,27.40
2017-11-30T14:01:09.876Z,27.70
2017-11-30T14:03:44.703Z,26.17
2017-11-30T14:06:19.317Z,25.93
2017-11-30T14:08:54.212Z,24.53
2017-11-30T14:11:29.085Z,19.93
2017-11-30T14:14:04.174Z,20.20
2017-11-30T14:16:38.953Z,22.40
2017-11-30T14:19:13.674Z,17.00
2017-11-30T14:21:48.460Z,21.73
2017-11-30T14:24:23.408Z,18.23
2017-11-30T14:26:58.268Z,25.53
2017-11-30T14:29:33.209Z,22.73
2017-11-30T14:32:07.910Z,14.77
2017-11-30T14:34:42.868Z,19.80
2017-11-30T14:37:17.917Z,22.73
2017-11-30T14:39:52.902Z,25.10
2017-11-30T14:42:27.849Z,18.50
2017-11-30T14:45:03.090Z,21.93
2017-11-30T14:47:37.830Z,16.80
2017-11-30T14:50:12.812Z,19.90
2017-11-30T14:52:47.532Z,21.53
2017-11-30T14:55:22.572Z,16.40
2017-11-30T14:57:57.378Z,15.53
2017-11-30T15:00:32.644Z,18.83
2017-11-30T15:03:07.364Z,12.67
2017-11-30T15:05:42.424Z,13.57
2017-11-30T15:08:17.400Z,14.63
2017-11-30T15:10:52.416Z,17.50
2017-11-30T15:13:27.289Z,15.93
2017-11-30T15:16:02.228Z,15.97
2017-11-30T15:18:38.862Z,17.97
2017-11-30T15:21:14.244Z,13.70
2017-11-30T15:23:49.161Z,14.97
2017-11-30T15:26:24.200Z,16.90
2017-11-30T15:28:59.022Z,19.03
2017-11-30T15:31:33.619Z,19.10
2017-11-30T15:34:08.529Z,18.07
2017-11-30T15:36:46.424Z,17.23
2017-11-30T15:39:21.320Z,18.80
2017-11-30T15:41:56.344Z,19.40
2017-11-30T15:44:31.384Z,15.80
2017-11-30T15:47:06.226Z,17.50
2017-11-30T15:49:41.109Z,19.77
2017-11-30T15:52:15.960Z,22.63
2017-11-30T15:54:50.757Z,109.67
2017-11-30T15:57:25.612Z,28.13
2017-11-30T16:00:00.409Z,30.70
2017-11-30T16:02:35.236Z,22.00
2017-11-30T16:05:10.170Z,22.40
2017-11-30T16:07:44.984Z,28.07
2017-11-30T16:10:19.952Z,24.33
2017-11-30T16:12:54.846Z,22.97
2017-11-30T16:15:29.671Z,29.17
2017-11-30T16:18:04.504Z,23.77
2017-11-30T16:20:39.347Z,29.60
2017-11-30T16:23:14.256Z,24.27
2017-11-30T16:25:49.338Z,28.90
2017-11-30T16:28:24.040Z,25.90
2017-11-30T16:30:59.199Z,23.27
2017-11-30T16:33:33.484Z,29.20
2017-11-30T16:36:08.389Z,24.73
2017-11-30T16:38:43.376Z,30.20
2017-11-30T16:41:18.116Z,28.23
2017-11-30T16:43:52.928Z,42.17
2017-11-30T16:46:27.860Z,29.53
2017-11-30T16:49:02.788Z,33.80
2017-11-30T16:51:37.528Z,35.10
2017-11-30T16:54:12.425Z,29.70
2017-11-30T16:56:47.248Z,36.23
2017-11-30T16:59:22.029Z,37.33
2017-11-30T17:01:56.665Z,38.23
2017-11-30T17:04:31.689Z,47.23
2017-11-30T17:07:06.430Z,36.97
2017-11-30T17:09:41.249Z,36.37
2017-11-30T17:12:16.078Z,38.97
2017-11-30T17:14:50.876Z,26.47
2017-11-30T17:17:25.608Z,32.10
2017-11-30T17:20:00.249Z,31.00
2017-11-30T17:22:35.116Z,35.47
2017-11-30T17:25:09.789Z,33.67
2017-11-30T17:27:44.614Z,33.83
2017-11-30T17:30:19.310Z,32.00
2017-11-30T17:32:54.116Z,31.73
2017-11-30T17:35:32.046Z,31.20
2017-11-30T17:38:06.787Z,31.87
2017-11-30T17:40:41.433Z,29.60
2017-11-30T17:43:16.604Z,29.23
2017-11-30T17:45:51.313Z,28.37
2017-11-30T17:48:26.366Z,35.00
2017-11-30T17:51:01.072Z,31.33
2017-11-30T17:53:36.053Z,30.97
2017-11-30T17:56:10.902Z,36.73
2017-11-30T17:58:45.575Z,25.93
2017-11-30T18:01:20.536Z,29.67
2017-11-30T18:03:55.309Z,33.10
2017-11-30T18:06:30.161Z,31.77
2017-11-30T18:09:04.579Z,36.97
2017-11-30T18:11:39.641Z,27.93
2017-11-30T18:14:14.572Z,34.13
2017-11-30T18:16:49.816Z,35.37
2017-11-30T18:19:24.657Z,34.97
2017-11-30T18:21:59.756Z,34.07
2017-11-30T18:24:34.808Z,32.33
2017-11-30T18:27:09.912Z,32.80
2017-11-30T18:29:45.064Z,35.50
2017-11-30T18:32:19.802Z,27.93
2017-11-30T18:34:54.456Z,30.03
2017-11-30T18:37:29.192Z,35.73
2017-11-30T18:40:03.931Z,38.63
2017-11-30T18:42:38.931Z,29.10
2017-11-30T18:45:14.096Z,34.33
2017-11-30T18:47:48.894Z,31.27
2017-11-30T18:50:24.085Z,43.00
2017-11-30T18:52:58.804Z,41.90
2017-11-30T18:55:33.643Z,36.83
2017-11-30T18:58:08.681Z,41.90
2017-11-30T19:00:43.632Z,44.93
2017-11-30T19:03:18.428Z,35.83
2017-11-30T19:05:53.163Z,34.37
2017-11-30T19:08:27.795Z,36.47
2017-11-30T19:11:02.849Z,54.67
2017-11-30T19:13:37.619Z,35.27
2017-11-30T19:16:12.515Z,41.17
2017-11-30T19:18:47.409Z,37.30
2017-11-30T19:21:22.072Z,33.00
2017-11-30T19:23:56.864Z,33.53
2017-11-30T19:26:31.901Z,31.37
2017-11-30T19:29:06.961Z,33.00
2017-11-30T19:31:41.788Z,33.67
2017-11-30T19:34:16.637Z,34.80
2017-11-30T19:36:52.648Z,43.87
2017-11-30T19:39:27.988Z,32.50
2017-11-30T19:42:02.780Z,47.43
2017-11-30T19:44:37.946Z,99.43
2017-11-30T19:47:12.849Z,52.03
2017-11-30T19:49:47.652Z,85.20
2017-11-30T19:52:22.580Z,43.83
2017-11-30T19:54:57.517Z,42.00
2017-11-30T19:57:32.524Z,42.03
2017-11-30T20:00:07.265Z,41.13
2017-11-30T20:02:41.992Z,47.90
2017-11-30T20:05:16.861Z,39.80
2017-11-30T20:07:51.742Z,42.23
2017-11-30T20:10:26.576Z,40.83
2017-11-30T20:13:01.528Z,43.80
2017-11-30T20:15:36.359Z,45.00
2017-11-30T20:18:10.925Z,34.70
2017-11-30T20:20:45.820Z,44.97
2017-11-30T20:23:20.764Z,42.83
2017-11-30T20:25:55.696Z,57.63
2017-11-30T20:28:30.560Z,44.57
2017-11-30T20:31:05.334Z,38.40
2017-11-30T20:33:40.079Z,39.83
2017-11-30T20:36:14.913Z,34.30
2017-11-30T20:38:49.516Z,43.27
2017-11-30T20:41:24.544Z,40.37
2017-11-30T20:43:59.372Z,45.83
2017-11-30T20:46:34.423Z,40.27
2017-11-30T20:49:09.234Z,44.20
2017-11-30T20:51:44.176Z,37.60
2017-11-30T20:54:19.116Z,53.13
2017-11-30T20:56:53.936Z,37.50
2017-11-30T20:59:28.767Z,36.20
2017-11-30T21:02:03.866Z,31.53
2017-11-30T21:04:39.405Z,34.47
2017-11-30T21:07:14.401Z,37.17
2017-11-30T21:09:49.177Z,36.33
2017-11-30T21:12:23.984Z,41.03
2017-11-30T21:14:58.889Z,34.53
2017-11-30T21:17:33.729Z,36.47
2017-11-30T21:20:08.432Z,35.73
2017-11-30T21:22:43.388Z,34.70
2017-11-30T21:25:18.145Z,39.03
2017-11-30T21:27:53.061Z,27.90
2017-11-30T21:30:27.441Z,32.70
2017-11-30T21:33:02.324Z,33.30
2017-11-30T21:35:37.133Z,32.00
2017-11-30T21:38:11.980Z,32.07
2017-11-30T21:40:46.812Z,35.90
2017-11-30T21:43:21.824Z,31.13
2017-11-30T21:45:56.499Z,32.47
2017-11-30T21:48:31.324Z,30.50
2017-11-30T21:51:06.179Z,34.10
2017-11-30T21:53:41.076Z,35.87
2017-11-30T21:56:15.888Z,30.73
2017-11-30T21:58:50.616Z,35.20
2017-11-30T22:01:25.538Z,29.03
2017-11-30T22:04:00.397Z,30.80
2017-11-30T22:06:35.221Z,38.57
2017-11-30T22:09:09.933Z,29.80
2017-11-30T22:11:44.772Z,27.57
2017-11-30T22:14:19.516Z,39.77
2017-11-30T22:16:54.436Z,26.33
2017-11-30T22:19:29.237Z,23.50
2017-11-30T22:22:04.293Z,28.67
2017-11-30T22:24:39.313Z,25.70
2017-11-30T22:27:14.339Z,26.33
2017-11-30T22:29:49.144Z,31.87
2017-11-30T22:32:23.774Z,23.93
2017-11-30T22:34:58.714Z,25.37
2017-11-30T22:37:33.102Z,24.23
2017-11-30T22:40:08.432Z,30.30
2017-11-30T22:42:43.297Z,27.13
2017-11-30T22:45:18.014Z,24.47
2017-11-30T22:47:52.912Z,21.23
2017-11-30T22:50:27.925Z,32.43
2017-11-30T22:53:02.673Z,24.43
2017-11-30T22:55:37.829Z,23.87
2017-11-30T22:58:12.881Z,21.27
2017-11-30T23:00:47.908Z,22.50
2017-11-30T23:03:22.792Z,23.37
2017-11-30T23:05:57.215Z,27.37
2017-11-30T23:08:32.097Z,31.10
2017-11-30T23:11:07.002Z,22.70
2017-11-30T23:13:42.280Z,25.17
2017-11-30T23:16:17.190Z,24.60
2017-11-30T23:18:51.889Z,31.83
2017-11-30T23:21:27.227Z,23.77
2017-11-30T23:24:01.748Z,20.47
2017-11-30T23:26:36.810Z,24.80
2017-11-30T23:29:11.528Z,27.67
2017-11-30T23:31:46.589Z,23.73
2017-11-30T23:34:21.223Z,23.73
2017-11-30T23:36:55.924Z,29.23
2017-11-30T23:39:30.964Z,22.80
2017-11-30T23:42:05.585Z,24.43
2017-11-30T23:44:40.548Z,23.23
2017-11-30T23:47:15.204Z,24.00
2017-11-30T23:49:50.008Z,24.50
2017-11-30T23:52:24.713Z,26.43
2017-11-30T23:54:59.660Z,27.10
2017-11-30T23:57:34.375Z,24.50
